sensor_id;sensor_type;location;lat;lon;timestamp;pressure;altitude;pressure_sealevel;temperature;humidity
44988;BME280;35735;52.226;21.254;2022-10-04T00:09:41;99965.94;;;9.70;100.00
44988;BME280;35735;52.226;21.254;2022-10-04T00:14:47;99963.22;;;9.73;100.00
44988;BME280;35735;52.226;21.254;2022-10-04T00:19:50;99956.94;;;9.77;100.00
44988;BME280;35735;52.226;21.254;2022-10-04T00:25:13;99950.63;;;9.78;100.00
44988;BME280;35735;52.226;21.254;2022-10-04T00:30:21;99941.63;;;9.82;100.00
44988;BME280;35735;52.226;21.254;2022-10-04T00:40:27;99929.94;;;9.83;100.00
44988;BME280;35735;52.226;21.254;2022-10-04T00:45:54;99934.44;;;9.85;100.00
44988;BME280;35735;52.226;21.254;2022-10-04T00:56:31;99935.31;;;9.87;100.00
44988;BME280;35735;52.226;21.254;2022-10-04T01:01:35;99934.44;;;9.78;100.00
44988;BME280;35735;52.226;21.254;2022-10-04T01:06:36;99929.12;;;9.72;100.00
44988;BME280;35735;52.226;21.254;2022-10-04T01:11:41;99936.28;;;9.70;100.00
44988;BME280;35735;52.226;21.254;2022-10-04T01:16:46;99930.91;;;9.70;100.00
44988;BME280;35735;52.226;21.254;2022-10-04T01:22:09;99940.78;;;9.68;100.00
44988;BME280;35735;52.226;21.254;2022-10-04T01:27:31;99929.12;;;9.69;100.00
44988;BME280;35735;52.226;21.254;2022-10-04T01:32:38;99927.31;;;9.68;100.00
44988;BME280;35735;52.226;21.254;2022-10-04T01:37:39;99939.03;;;9.64;100.00
44988;BME280;35735;52.226;21.254;2022-10-04T01:42:49;99943.50;;;9.65;100.00
44988;BME280;35735;52.226;21.254;2022-10-04T01:47:59;99935.41;;;9.63;100.00
44988;BME280;35735;52.226;21.254;2022-10-04T01:53:12;99943.50;;;9.62;100.00
44988;BME280;35735;52.226;21.254;2022-10-04T01:58:19;99943.50;;;9.63;100.00
44988;BME280;35735;52.226;21.254;2022-10-04T02:03:28;99954.28;;;9.65;100.00
44988;BME280;35735;52.226;21.254;2022-10-04T02:08:36;99949.75;;;9.67;100.00
44988;BME280;35735;52.226;21.254;2022-10-04T02:13:39;99948.88;;;9.65;100.00
44988;BME280;35735;52.226;21.254;2022-10-04T02:18:41;99951.62;;;9.59;100.00
44988;BME280;35735;52.226;21.254;2022-10-04T02:23:43;99957.91;;;9.55;100.00
44988;BME280;35735;52.226;21.254;2022-10-04T02:28:44;99954.31;;;9.56;100.00
44988;BME280;35735;52.226;21.254;2022-10-04T02:33:47;99948.94;;;9.56;100.00
44988;BME280;35735;52.226;21.254;2022-10-04T02:38:59;99952.50;;;9.56;100.00
44988;BME280;35735;52.226;21.254;2022-10-04T02:44:15;99954.31;;;9.57;100.00
44988;BME280;35735;52.226;21.254;2022-10-04T02:49:27;99957.03;;;9.56;100.00
44988;BME280;35735;52.226;21.254;2022-10-04T02:54:50;99944.44;;;9.50;100.00
44988;BME280;35735;52.226;21.254;2022-10-04T03:00:28;99964.22;;;9.48;100.00
44988;BME280;35735;52.226;21.254;2022-10-04T03:05:30;99963.31;;;9.52;100.00
44988;BME280;35735;52.226;21.254;2022-10-04T03:10:31;99962.41;;;9.51;100.00
44988;BME280;35735;52.226;21.254;2022-10-04T03:15:32;99957.03;;;9.51;100.00
44988;BME280;35735;52.226;21.254;2022-10-04T03:20:36;99957.00;;;9.57;100.00
44988;BME280;35735;52.226;21.254;2022-10-04T03:25:46;99959.72;;;9.56;100.00
44988;BME280;35735;52.226;21.254;2022-10-04T03:30:50;99952.53;;;9.52;100.00
44988;BME280;35735;52.226;21.254;2022-10-04T03:35:53;99969.59;;;9.51;100.00
44988;BME280;35735;52.226;21.254;2022-10-04T03:40:58;99970.50;;;9.51;100.00
44988;BME280;35735;52.226;21.254;2022-10-04T03:46:00;99973.19;;;9.51;100.00
44988;BME280;35735;52.226;21.254;2022-10-04T03:51:04;99971.37;;;9.56;100.00
44988;BME280;35735;52.226;21.254;2022-10-04T03:56:23;99973.19;;;9.59;100.00
44988;BME280;35735;52.226;21.254;2022-10-04T04:02:01;99980.34;;;9.63;100.00
44988;BME280;35735;52.226;21.254;2022-10-04T04:07:13;99977.63;;;9.63;100.00
44988;BME280;35735;52.226;21.254;2022-10-04T04:12:22;99983.91;;;9.63;100.00
44988;BME280;35735;52.226;21.254;2022-10-04T04:22:26;99980.31;;;9.68;100.00
44988;BME280;35735;52.226;21.254;2022-10-04T04:27:28;99983.91;;;9.68;100.00
44988;BME280;35735;52.226;21.254;2022-10-04T04:32:37;99997.38;;;9.67;100.00
44988;BME280;35735;52.226;21.254;2022-10-04T04:37:39;100001.00;;;9.64;100.00
44988;BME280;35735;52.226;21.254;2022-10-04T04:42:40;100004.59;;;9.63;100.00
44988;BME280;35735;52.226;21.254;2022-10-04T04:47:46;100005.47;;;9.65;100.00
44988;BME280;35735;52.226;21.254;2022-10-04T04:53:15;100008.16;;;9.65;100.00
44988;BME280;35735;52.226;21.254;2022-10-04T04:58:21;100018.06;;;9.69;100.00
44988;BME280;35735;52.226;21.254;2022-10-04T05:03:23;100021.62;;;9.76;100.00
44988;BME280;35735;52.226;21.254;2022-10-04T05:08:26;100018.88;;;9.85;100.00
44988;BME280;35735;52.226;21.254;2022-10-04T05:18:39;100027.88;;;9.86;100.00
44988;BME280;35735;52.226;21.254;2022-10-04T05:23:39;100032.34;;;9.90;100.00
44988;BME280;35735;52.226;21.254;2022-10-04T05:28:40;100037.75;;;9.93;100.00
44988;BME280;35735;52.226;21.254;2022-10-04T05:33:59;100051.22;;;9.94;100.00
44988;BME280;35735;52.226;21.254;2022-10-04T05:39:27;100053.00;;;9.94;100.00
44988;BME280;35735;52.226;21.254;2022-10-04T05:44:56;100069.16;;;9.94;100.00
44988;BME280;35735;52.226;21.254;2022-10-04T05:49:58;100073.66;;;9.96;100.00
44988;BME280;35735;52.226;21.254;2022-10-04T05:55:27;100078.16;;;9.99;100.00
44988;BME280;35735;52.226;21.254;2022-10-04T06:00:45;100084.44;;;9.99;100.00
44988;BME280;35735;52.226;21.254;2022-10-04T06:06:20;100095.22;;;10.02;100.00
44988;BME280;35735;52.226;21.254;2022-10-04T06:17:23;100112.28;;;10.09;100.00
44988;BME280;35735;52.226;21.254;2022-10-04T06:22:42;100121.25;;;10.11;100.00
44988;BME280;35735;52.226;21.254;2022-10-04T06:33:22;100115.81;;;10.24;100.00
44988;BME280;35735;52.226;21.254;2022-10-04T06:44:15;100130.12;;;10.50;100.00
44988;BME280;35735;52.226;21.254;2022-10-04T06:49:40;100138.19;;;10.64;100.00
44988;BME280;35735;52.226;21.254;2022-10-04T07:00:38;100153.38;;;10.79;100.00
44988;BME280;35735;52.226;21.254;2022-10-04T07:05:47;100164.16;;;10.82;100.00
44988;BME280;35735;52.226;21.254;2022-10-04T07:10:55;100159.63;;;10.89;100.00
44988;BME280;35735;52.226;21.254;2022-10-04T07:27:09;100195.59;;;11.00;100.00
44988;BME280;35735;52.226;21.254;2022-10-04T07:32:22;100196.53;;;10.98;100.00
44988;BME280;35735;52.226;21.254;2022-10-04T07:37:27;100186.59;;;11.01;100.00
44988;BME280;35735;52.226;21.254;2022-10-04T07:42:33;100191.00;;;11.18;100.00
44988;BME280;35735;52.226;21.254;2022-10-04T07:47:38;100194.38;;;11.46;100.00
44988;BME280;35735;52.226;21.254;2022-10-04T07:52:53;100194.97;;;11.88;100.00
44988;BME280;35735;52.226;21.254;2022-10-04T07:58:20;100208.22;;;12.19;100.00
44988;BME280;35735;52.226;21.254;2022-10-04T08:03:43;100205.28;;;12.40;100.00
44988;BME280;35735;52.226;21.254;2022-10-04T08:09:27;100219.66;;;12.47;100.00
44988;BME280;35735;52.226;21.254;2022-10-04T08:15:08;100216.09;;;12.44;100.00
44988;BME280;35735;52.226;21.254;2022-10-04T08:31:43;100241.22;;;12.58;100.00
44988;BME280;35735;52.226;21.254;2022-10-04T08:37:23;100238.50;;;12.58;100.00
44988;BME280;35735;52.226;21.254;2022-10-04T08:54:27;100247.50;;;13.33;100.00
44988;BME280;35735;52.226;21.254;2022-10-04T09:05:32;100263.03;;;13.20;100.00
44988;BME280;35735;52.226;21.254;2022-10-04T09:16:45;100281.41;;;12.95;100.00
44988;BME280;35735;52.226;21.254;2022-10-04T09:38:51;100294.37;;;12.67;100.00
44988;BME280;35735;52.226;21.254;2022-10-04T09:44:27;100306.03;;;12.72;100.00
44988;BME280;35735;52.226;21.254;2022-10-04T10:06:11;100326.53;;;12.94;100.00
44988;BME280;35735;52.226;21.254;2022-10-04T10:17:12;100335.66;;;12.87;100.00
44988;BME280;35735;52.226;21.254;2022-10-04T10:28:18;100344.81;;;12.77;100.00
44988;BME280;35735;52.226;21.254;2022-10-04T10:33:45;100337.50;;;12.84;100.00
44988;BME280;35735;52.226;21.254;2022-10-04T10:39:32;100350.06;;;12.91;100.00
44988;BME280;35735;52.226;21.254;2022-10-04T11:01:56;100364.50;;;13.70;100.00
44988;BME280;35735;52.226;21.254;2022-10-04T11:40:35;100401.81;;;14.18;100.00
44988;BME280;35735;52.226;21.254;2022-10-04T11:46:22;100410.03;;;14.12;100.00
44988;BME280;35735;52.226;21.254;2022-10-04T12:02:59;100410.03;;;14.12;100.00
44988;BME280;35735;52.226;21.254;2022-10-04T12:08:46;100426.28;;;14.15;100.00
44988;BME280;35735;52.226;21.254;2022-10-04T12:14:14;100431.56;;;14.24;100.00
44988;BME280;35735;52.226;21.254;2022-10-04T12:31:08;100434.81;;;14.48;100.00
44988;BME280;35735;52.226;21.254;2022-10-04T12:53:42;100463.28;;;14.21;100.00
44988;BME280;35735;52.226;21.254;2022-10-04T12:59:03;100473.22;;;14.23;100.00
44988;BME280;35735;52.226;21.254;2022-10-04T13:04:32;100469.47;;;14.31;100.00
44988;BME280;35735;52.226;21.254;2022-10-04T13:15:27;100475.53;;;14.50;100.00
44988;BME280;35735;52.226;21.254;2022-10-04T13:20:46;100460.94;;;14.57;100.00
44988;BME280;35735;52.226;21.254;2022-10-04T13:31:12;100479.94;;;14.58;100.00
44988;BME280;35735;52.226;21.254;2022-10-04T13:36:50;100487.19;;;14.59;100.00
44988;BME280;35735;52.226;21.254;2022-10-04T13:42:16;100490.88;;;14.52;100.00
44988;BME280;35735;52.226;21.254;2022-10-04T13:52:54;100499.00;;;14.54;100.00
44988;BME280;35735;52.226;21.254;2022-10-04T13:58:24;100507.22;;;14.49;100.00
44988;BME280;35735;52.226;21.254;2022-10-04T14:09:02;100507.44;;;14.34;100.00
44988;BME280;35735;52.226;21.254;2022-10-04T14:14:37;100509.34;;;14.29;100.00
44988;BME280;35735;52.226;21.254;2022-10-04T14:26:18;100529.25;;;14.26;100.00
44988;BME280;35735;52.226;21.254;2022-10-04T14:38:03;100531.13;;;14.24;100.00
44988;BME280;35735;52.226;21.254;2022-10-04T14:49:34;100536.56;;;14.21;100.00
44988;BME280;35735;52.226;21.254;2022-10-04T14:59:57;100543.72;;;14.26;100.00
44988;BME280;35735;52.226;21.254;2022-10-04T15:05:28;100555.53;;;14.25;100.00
44988;BME280;35735;52.226;21.254;2022-10-04T15:10:37;100559.19;;;14.21;100.00
44988;BME280;35735;52.226;21.254;2022-10-04T15:21:50;100569.22;;;14.13;100.00
44988;BME280;35735;52.226;21.254;2022-10-04T15:27:21;100579.34;;;14.03;100.00
44988;BME280;35735;52.226;21.254;2022-10-04T15:38:32;100592.91;;;14.02;100.00
44988;BME280;35735;52.226;21.254;2022-10-04T15:43:43;100602.00;;;13.95;100.00
44988;BME280;35735;52.226;21.254;2022-10-04T15:49:46;100607.56;;;13.85;100.00
44988;BME280;35735;52.226;21.254;2022-10-04T15:55:30;100613.97;;;13.78;100.00
44988;BME280;35735;52.226;21.254;2022-10-04T16:01:15;100614.94;;;13.68;100.00
44988;BME280;35735;52.226;21.254;2022-10-04T16:06:43;100625.94;;;13.54;100.00
44988;BME280;35735;52.226;21.254;2022-10-04T16:12:25;100639.59;;;13.43;100.00
44988;BME280;35735;52.226;21.254;2022-10-04T16:23:34;100655.91;;;13.39;100.00
44988;BME280;35735;52.226;21.254;2022-10-04T16:33:57;100668.69;;;13.16;100.00
44988;BME280;35735;52.226;21.254;2022-10-04T16:39:02;100678.69;;;13.08;100.00
44988;BME280;35735;52.226;21.254;2022-10-04T16:44:10;100685.00;;;13.04;100.00
44988;BME280;35735;52.226;21.254;2022-10-04T16:49:36;100682.38;;;12.95;100.00
44988;BME280;35735;52.226;21.254;2022-10-04T16:54:56;100690.53;;;12.87;100.00
44988;BME280;35735;52.226;21.254;2022-10-04T17:00:32;100692.34;;;12.82;100.00
44988;BME280;35735;52.226;21.254;2022-10-04T17:11:09;100699.59;;;12.80;100.00
44988;BME280;35735;52.226;21.254;2022-10-04T17:16:35;100704.13;;;12.76;100.00
44988;BME280;35735;52.226;21.254;2022-10-04T17:22:13;100708.63;;;12.77;100.00
44988;BME280;35735;52.226;21.254;2022-10-04T17:27:40;100709.56;;;12.76;100.00
44988;BME280;35735;52.226;21.254;2022-10-04T17:38:42;100722.16;;;12.77;100.00
44988;BME280;35735;52.226;21.254;2022-10-04T17:44:25;100724.00;;;12.69;100.00
44988;BME280;35735;52.226;21.254;2022-10-04T17:55:17;100722.25;;;12.59;100.00
44988;BME280;35735;52.226;21.254;2022-10-04T18:00:23;100723.19;;;12.50;100.00
44988;BME280;35735;52.226;21.254;2022-10-04T18:05:28;100731.31;;;12.42;100.00
44988;BME280;35735;52.226;21.254;2022-10-04T18:10:37;100732.25;;;12.32;100.00
44988;BME280;35735;52.226;21.254;2022-10-04T18:15:48;100736.78;;;12.21;100.00
44988;BME280;35735;52.226;21.254;2022-10-04T18:26:05;100744.03;;;12.10;100.00
44988;BME280;35735;52.226;21.254;2022-10-04T18:31:29;100753.94;;;11.98;100.00
44988;BME280;35735;52.226;21.254;2022-10-04T18:36:50;100758.44;;;11.89;100.00
44988;BME280;35735;52.226;21.254;2022-10-04T18:41:58;100771.94;;;11.87;100.00
44988;BME280;35735;52.226;21.254;2022-10-04T18:47:14;100773.75;;;11.80;100.00
44988;BME280;35735;52.226;21.254;2022-10-04T18:52:29;100772.84;;;11.74;100.00
44988;BME280;35735;52.226;21.254;2022-10-04T18:57:44;100783.66;;;11.61;100.00
44988;BME280;35735;52.226;21.254;2022-10-04T19:08:33;100790.81;;;11.38;100.00
44988;BME280;35735;52.226;21.254;2022-10-04T19:13:54;100798.00;;;11.29;100.00
44988;BME280;35735;52.226;21.254;2022-10-04T19:29:46;100806.00;;;11.03;100.00
44988;BME280;35735;52.226;21.254;2022-10-04T19:35:13;100803.22;;;10.86;100.00
44988;BME280;35735;52.226;21.254;2022-10-04T19:51:44;100823.75;;;10.56;100.00
44988;BME280;35735;52.226;21.254;2022-10-04T19:56:49;100826.38;;;10.44;100.00
44988;BME280;35735;52.226;21.254;2022-10-04T20:01:52;100826.31;;;10.35;100.00
44988;BME280;35735;52.226;21.254;2022-10-04T20:06:57;100837.94;;;10.29;100.00
44988;BME280;35735;52.226;21.254;2022-10-04T20:11:58;100845.03;;;10.18;100.00
44988;BME280;35735;52.226;21.254;2022-10-04T20:42:42;100876.12;;;9.77;100.00
44988;BME280;35735;52.226;21.254;2022-10-04T20:47:52;100879.69;;;9.76;100.00
44988;BME280;35735;52.226;21.254;2022-10-04T20:52:58;100880.50;;;9.68;100.00
44988;BME280;35735;52.226;21.254;2022-10-04T20:58:04;100880.47;;;9.64;100.00
44988;BME280;35735;52.226;21.254;2022-10-04T21:03:22;100881.31;;;9.59;100.00
44988;BME280;35735;52.226;21.254;2022-10-04T21:08:24;100885.75;;;9.55;100.00
44988;BME280;35735;52.226;21.254;2022-10-04T21:13:48;100899.19;;;9.54;100.00
44988;BME280;35735;52.226;21.254;2022-10-04T21:18:52;100901.84;;;9.49;100.00
44988;BME280;35735;52.226;21.254;2022-10-04T21:23:52;100891.88;;;9.43;100.00
44988;BME280;35735;52.226;21.254;2022-10-04T21:28:55;100890.09;;;9.42;100.00
44988;BME280;35735;52.226;21.254;2022-10-04T21:33:56;100892.72;;;9.36;100.00
44988;BME280;35735;52.226;21.254;2022-10-04T21:38:56;100900.75;;;9.33;100.00
44988;BME280;35735;52.226;21.254;2022-10-04T21:43:57;100903.44;;;9.33;100.00
44988;BME280;35735;52.226;21.254;2022-10-04T21:48:58;100904.19;;;9.21;100.00
44988;BME280;35735;52.226;21.254;2022-10-04T21:53:58;100895.09;;;9.13;100.00
44988;BME280;35735;52.226;21.254;2022-10-04T21:58:59;100877.00;;;9.01;100.00
44988;BME280;35735;52.226;21.254;2022-10-04T22:03:59;100892.22;;;8.99;100.00
44988;BME280;35735;52.226;21.254;2022-10-04T22:09:00;100871.50;;;8.95;100.00
44988;BME280;35735;52.226;21.254;2022-10-04T22:14:00;100886.66;;;8.85;100.00
44988;BME280;35735;52.226;21.254;2022-10-04T22:19:01;100890.28;;;8.87;100.00
44988;BME280;35735;52.226;21.254;2022-10-04T22:24:03;100898.22;;;8.80;100.00
44988;BME280;35735;52.226;21.254;2022-10-04T22:29:17;100907.16;;;8.77;100.00
44988;BME280;35735;52.226;21.254;2022-10-04T22:34:20;100915.22;;;8.76;100.00
44988;BME280;35735;52.226;21.254;2022-10-04T22:39:21;100909.75;;;8.71;100.00
44988;BME280;35735;52.226;21.254;2022-10-04T22:44:28;100911.59;;;8.72;100.00
44988;BME280;35735;52.226;21.254;2022-10-04T22:49:41;100939.34;;;8.69;100.00
44988;BME280;35735;52.226;21.254;2022-10-04T22:54:51;100934.00;;;8.73;100.00
44988;BME280;35735;52.226;21.254;2022-10-04T22:59:52;100953.78;;;8.75;100.00
44988;BME280;35735;52.226;21.254;2022-10-04T23:04:54;100947.41;;;8.69;100.00
44988;BME280;35735;52.226;21.254;2022-10-04T23:09:57;100943.06;;;8.78;100.00
44988;BME280;35735;52.226;21.254;2022-10-04T23:14:57;100948.59;;;8.88;100.00
44988;BME280;35735;52.226;21.254;2022-10-04T23:20:12;100945.06;;;8.91;100.00
44988;BME280;35735;52.226;21.254;2022-10-04T23:25:17;100940.53;;;8.90;100.00
44988;BME280;35735;52.226;21.254;2022-10-04T23:30:28;100935.34;;;9.01;100.00
44988;BME280;35735;52.226;21.254;2022-10-04T23:35:30;100936.16;;;8.97;100.00
44988;BME280;35735;52.226;21.254;2022-10-04T23:40:32;100941.56;;;8.98;100.00
44988;BME280;35735;52.226;21.254;2022-10-04T23:45:32;100948.87;;;9.05;100.00
44988;BME280;35735;52.226;21.254;2022-10-04T23:50:35;100941.75;;;9.11;100.00
44988;BME280;35735;52.226;21.254;2022-10-04T23:55:41;100931.03;;;9.15;100.00
